Flight Track Log - Related Links

Times and Time Zones

All times are in EDT time to prevent confusion due to time zone crossing. See the UAL258 flight status page for this flight to view local times or setup timezone preferences in your user account.

Time Position Orientation Groundspeed Altitude Reporting Facility
EDT Latitude Longitude Course Direction KTS MPH feet Rate Location/Type
Fri 06:13:53 AM 39.1706 -76.7267 256° West 178 205 1,600  Level Washington Center
Fri 06:14:30 AM 39.1833 -76.7667 292° West 207 238 2,800 2,412 Climbing Potomac TRACON
Fri 06:15:30 AM 39.2000 -76.8500 284° West 247 284 5,500 3,000 Climbing Potomac TRACON
Fri 06:16:00 AM 39.2000 -77.0673 270° West  Level FlightAware
Fri 06:16:30 AM 39.2167 -76.9500 282° West 260 299 8,800  Level Potomac TRACON
Fri 06:17:00 AM 39.1655 -77.1806 211° Southwest  Level FlightAware
Fri 06:17:30 AM 39.2167 -77.0500 270° West 272 313 11,300  Level Potomac TRACON
Fri 06:18:00 AM 39.0747 -77.2512 211° Southwest  Level FlightAware
Fri 06:19:00 AM 38.9961 -77.3360 256° West  Level FlightAware
Fri 06:19:52 AM 39.0936 -77.2550 232° Southwest 332 382 15,800  Level Washington Center
Fri 06:20:52 AM 39.0111 -77.3361 217° Southwest 350 403 17,700 1,835 Climbing Washington Center
Fri 06:21:53 AM 38.9800 -77.4661 253° West 361 415 19,500 1,650 Climbing Washington Center
Fri 06:22:52 AM 38.9550 -77.6044 257° West 387 445 21,000 1,563 Climbing Washington Center
Fri 06:23:52 AM 38.9444 -77.7347 264° West 407 468 22,600 1,729 Climbing Washington Center
Fri 06:24:50 AM 38.9497 -77.8978 272° West 412 474 24,400 2,000 Climbing Washington Center
Fri 06:25:52 AM 38.9553 -78.0422 273° West 419 482 26,600 1,805 Climbing Washington Center
Fri 06:26:53 AM 38.9583 -78.1864 272° West 419 482 28,100 1,412 Climbing Washington Center
Fri 06:27:51 AM 38.9636 -78.3281 273° West 414 476 29,400 1,109 Climbing Washington Center
Fri 06:28:52 AM 38.9686 -78.4750 273° West 414 476 30,300 1,033 Climbing Washington Center
Fri 06:29:53 AM 38.9733 -78.6222 272° West 414 476 31,500 1,350 Climbing Washington Center
Fri 06:30:52 AM 38.9778 -78.7692 272° West 414 476 33,000 1,436 Climbing Washington Center
Fri 06:31:50 AM 38.9800 -78.9136 271° West 414 476 34,300 1,109 Climbing Washington Center
Fri 06:32:51 AM 38.9867 -79.0553 274° West 414 476 35,200 843 Climbing Washington Center
Fri 06:33:51 AM 38.9886 -79.1969 271° West 403 464 36,000 393 Climbing Washington Center
Fri 06:34:53 AM 38.9925 -79.3467 272° West 408 470 36,000  Level Washington Center
Fri 06:35:51 AM 38.9981 -79.4967 273° West 419 482 36,000  Level Washington Center
Fri 06:36:52 AM 38.9994 -79.6411 271° West 438 504 36,000  Level Washington Center
Fri 06:37:51 AM 39.0044 -79.8042 272° West 438 504 36,000  Level Washington Center
Fri 06:38:50 AM 39.0053 -79.9511 270° West 428 493 36,000  Level Washington Center
Fri 06:39:51 AM 39.0061 -80.0981 270° West 417 480 36,000  Level Washington Center
Fri 06:40:49 AM 39.0058 -80.2333 270° West 413 475 36,000  Level Indianapolis Center
Fri 06:41:50 AM 39.0089 -80.3806 272° West 413 475 36,000  Level Indianapolis Center
Fri 06:42:51 AM 39.0103 -80.5275 271° West 412 474 36,000 -298 Level Indianapolis Center
Fri 06:43:51 AM 39.0125 -80.6733 271° West 410 472 35,400 -496 Descending Indianapolis Center
Fri 06:44:52 AM 39.0256 -80.8186 277° West 415 478 35,000 -197 Descending Indianapolis Center
Fri 06:45:53 AM 39.0714 -80.9517 294° West 412 474 35,000  Level Indianapolis Center
Fri 06:46:53 AM 39.1244 -81.0789 298° West 406 467 35,000  Level Indianapolis Center
Fri 06:47:54 AM 39.1775 -81.2081 298° West 408 470 35,000 -49 Level Indianapolis Center
Fri 06:48:55 AM 39.2294 -81.3372 297° West 410 472 34,900 -492 Descending Indianapolis Center
Fri 06:49:56 AM 39.2828 -81.4667 298° West 411 473 34,000 -443 Descending Indianapolis Center
Fri 06:50:57 AM 39.3361 -81.5989 298° West 416 479 34,000  Level Indianapolis Center
Fri 06:51:57 AM 39.3900 -81.7322 298° West 420 483 34,000  Level Indianapolis Center
Fri 06:52:58 AM 39.4431 -81.8658 297° West 418 481 34,000  Level Indianapolis Center
Fri 06:53:59 AM 39.5072 -82.0244 298° West 416 479 34,000 -49 Level Indianapolis Center
Fri 06:55:00 AM 39.5547 -82.1422 298° West 410 472 33,900  Descending Indianapolis Center
Fri 06:56:00 AM 39.6064 -82.2750 297° West 410 472 34,000  Climbing Indianapolis Center
Fri 06:57:01 AM 39.6600 -82.4083 298° West 413 475 33,900 -49 Descending Indianapolis Center
Fri 06:58:02 AM 39.7125 -82.5403 297° West 409 471 33,900  Level Indianapolis Center
Fri 06:59:03 AM 39.7644 -82.6739 297° West 412 474 33,900 49 Level Indianapolis Center
Fri 07:00:04 AM 39.8167 -82.8078 297° West 412 474 34,000 49 Climbing Indianapolis Center
Fri 07:01:05 AM 39.8689 -82.9419 297° West 412 474 34,000  Level Indianapolis Center
Fri 07:02:06 AM 39.9211 -83.0775 297° West 415 478 34,000 -50 Level Indianapolis Center
Fri 07:03:06 AM 39.9728 -83.2117 297° West 415 478 33,900  Descending Indianapolis Center
Fri 07:04:07 AM 40.0342 -83.3692 297° West 420 483 34,000  Climbing Indianapolis Center
Fri 07:05:08 AM 40.0867 -83.5072 296° West 426 490 33,900 -49 Descending Indianapolis Center
Fri 07:06:09 AM 40.1383 -83.6447 296° West 424 488 33,900  Level Indianapolis Center
Fri 07:07:10 AM 40.1903 -83.7828 296° West 422 486 33,900  Level Indianapolis Center
Fri 07:08:11 AM 40.2422 -83.9222 296° West 424 488 33,900 49 Level Indianapolis Center
Fri 07:09:12 AM 40.2986 -84.0589 298° West 422 486 34,000 49 Climbing Indianapolis Center
Fri 07:10:13 AM 40.3733 -84.1808 309° West 426 490 34,000  Level Indianapolis Center
Fri 07:11:14 AM 40.4472 -84.3033 308° West 424 488 34,000  Level Indianapolis Center
Fri 07:12:15 AM 40.5222 -84.4256 309° West 426 490 34,000 -49 Level Indianapolis Center
Fri 07:13:16 AM 40.5956 -84.5469 309° West 422 486 33,900  Descending Indianapolis Center
Fri 07:14:11 AM 40.6614 -84.6553 309° West 422 486 34,000 53 Climbing Chicago Center
Fri 07:15:10 AM 40.7294 -84.7781 306° West 418 481 34,000  Level Chicago Center
Fri 07:16:13 AM 40.7872 -84.9144 299° West 419 482 34,000  Level Chicago Center
Fri 07:17:14 AM 40.8469 -85.0478 301° West 422 486 34,000 -446 Level Chicago Center
Fri 07:18:14 AM 40.9047 -85.1842 299° West 423 487 33,100 -1,240 Descending Chicago Center
Fri 07:19:15 AM 40.9653 -85.3181 301° West 424 488 31,500 -1,574 Descending Chicago Center
Fri 07:20:16 AM 41.0272 -85.4572 301° West 435 501 29,900 -1,561 Descending Chicago Center
Fri 07:21:18 AM 41.0922 -85.6014 301° West 449 517 28,300 -1,561 Descending Chicago Center
Fri 07:22:19 AM 41.1561 -85.7461 300° West 452 520 26,700 -1,574 Descending Chicago Center
Fri 07:23:20 AM 41.2158 -85.8831 300° West 432 497 25,100 -836 Descending Chicago Center
Fri 07:24:21 AM 41.2736 -86.0158 300° West 417 480 25,000 -49 Descending Chicago Center
Fri 07:25:22 AM 41.3158 -86.1903 288° West 414 476 25,000 -639 Level Chicago Center
Fri 07:26:23 AM 41.3461 -86.3372 285° West 413 475 23,700 -1,869 Descending Chicago Center
Fri 07:27:24 AM 41.3764 -86.4811 286° West 407 468 21,200 -2,410 Descending Chicago Center
Fri 07:28:25 AM 41.4053 -86.6211 285° West 397 457 18,800 -2,195 Descending Chicago Center
Fri 07:29:27 AM 41.4328 -86.7536 286° West 380 437 16,700 -2,081 Descending Chicago Center
Fri 07:30:29 AM 41.4600 -86.8847 286° West 372 428 14,500 -2,244 Descending Chicago Center
Fri 07:31:30 AM 41.4856 -87.0108 285° West 359 413 12,100 -1,707 Descending Chicago Center
Fri 07:32:32 AM 41.5108 -87.1364 285° West 354 407 11,000 -600 Descending Chicago Center
Fri 07:33:10 AM 41.5667 -87.2333 308° West 358 412 11,100  Climbing Chicago TRACON
Fri 07:34:10 AM 41.6167 -87.3333 304° West 356 410 11,000  Descending Chicago TRACON
Fri 07:34:35 AM 41.6450 -87.3608 324° Northwest 353 406 11,100 -349 Climbing Chicago Center
Fri 07:35:36 AM 41.7061 -87.4589 310° West 349 402 10,500 -694 Descending Chicago Center
Fri 07:36:36 AM 41.7622 -87.5456 311° West 317 365 9,700 -1,161 Descending Chicago Center
Fri 07:37:40 AM 41.8097 -87.6300 307° West 294 338 8,100 -1,660 Descending Chicago Center
Fri 07:38:10 AM 41.8167 -87.7000 278° West 291 335 7,100 -725 Descending Chicago TRACON
Fri 07:39:11 AM 41.8167 -87.8000 270° West 271 312 7,000 -545 Descending Chicago TRACON
Fri 07:40:11 AM 41.8000 -87.9000 257° West 239 275 6,000 -957 Descending Chicago TRACON
Fri 07:40:45 AM 41.7994 -87.9367 269° West 236 272 5,500 -830 Descending Chicago Center
Fri 07:41:45 AM 41.8044 -88.0136 275° West 233 268 4,700 -878 Descending Chicago Center
Fri 07:42:48 AM 41.8592 -88.0142 360° North 219 252 3,700 -1,224 Descending Chicago Center
Fri 07:43:23 AM 41.8833 -87.9667 56° Northeast 208 239 2,700 -1,714 Descending Chicago TRACON

Login

Don't have an account? Register now (free) for customized features, flight alerts, and more!